3N6 weather

Public forecast

Using degrees Fahrenheit for public forecast. Weather courtesy of forecast.io.

Closest aviation weather report (METAR) to Old Bridge Airport

Closest report is Monmouth Executive Airport, 13.3 nm (24.6 km) SE. Retrieved 2020/08/13 10:56 UTC (13 minutes ago):

KBLM 131056Z AUTO 00000KT 8SM FEW002 BKN120 23/ A3010 RMK AO2 SLP190 T0228

Closest aviation forecast (TAF) to Old Bridge Airport

Closest forecast is Trenton Mercer Airport, 21.6 nm (40.0 km) W. Retrieved 2020/08/13 06:24 UTC (5 hours ago):

TAF KTTN 130521Z 1306/1406 VRB03KT P6SM SCT025 TEMPO 1309/1313 3SM BR OVC010 FM131300 VRB03KT P6SM BKN025 TEMPO 1313/1317 3SM SHRA BR OVC010 FM131700 22004KT P6SM BKN035 FM132000 VRB03KT P6SM VCTS BKN035CB FM140000 VRB03KT P6SM SCT045